MFA weather

Mafia Island Airport
Mafia Island, Pwani Region, Tanzania

Public forecast

Using degrees Celsius for public forecast. Weather courtesy of forecast.io.

Closest aviation weather report (METAR) to Mafia Island Airport

Report is more than 6 hours old.

Closest report is Kilwa Masoko Airport, 60.4 nm (111.9 km) S. Retrieved 2020/01/01 14:00 UTC (23 days ago):

HTKI 011400Z 18008KT 9999 SCT022 FEW023CB 31/25 Q////

Closest aviation forecast (TAF) to Mafia Island Airport

Closest forecast is Julius Nyerere International Airport, 68.3 nm (126.5 km) NNW. Retrieved 2020-01-25 00:03 UTC (2 hours ago):

TAF TAF HTDA 242300Z 2500/2606 35010KT 9999 BKN017 FEW019CB TEMPO 2504/2510 SHRA BECMG 2513/2515 02010KT SCT019 FEW020CB